Time;durP1;ratioP1;P1;durP2;ratioP2;P2;SDS_P1;SDS_P2;PMS_P1;PMS_P2;Temp;Humidity;BMP_temperature;BMP_pressure;BME280_temperature;BME280_humidity;BME280_pressure;Samples;Min_cycle;Max_cycle;Signal;HPM_P1;HPM_P2
2022/03/03 00:01:43;;;;;;;50.28;28.85;;;3.90;99.90;;;;;;5074581;28;20392;-67
2022/03/03 00:04:09;;;;;;;50.28;29.05;;;3.10;99.90;;;;;;5073007;28;20369;-66
2022/03/03 00:06:35;;;;;;;54.33;29.27;;;2.80;99.90;;;;;;5073990;28;20052;-66
2022/03/03 00:09:02;;;;;;;52.67;27.95;;;3.00;99.90;;;;;;5073352;28;20403;-66
2022/03/03 00:11:30;;;;;;;52.25;28.52;;;3.00;99.90;;;;;;5073939;28;20449;-66
2022/03/03 00:13:56;;;;;;;49.90;27.90;;;3.00;99.90;;;;;;5072453;28;20048;-66
2022/03/03 00:16:22;;;;;;;50.03;27.33;;;3.30;99.90;;;;;;5073216;28;20507;-65
2022/03/03 00:18:48;;;;;;;53.72;28.15;;;2.80;99.90;;;;;;5074131;28;20040;-65
2022/03/03 00:21:13;;;;;;;49.95;27.52;;;2.80;99.90;;;;;;5073609;28;20047;-65
2022/03/03 00:23:39;;;;;;;49.75;27.08;;;3.20;99.90;;;;;;5073549;28;20124;-65
2022/03/03 00:26:05;;;;;;;51.95;27.00;;;2.80;99.90;;;;;;5073517;28;20484;-65
2022/03/03 00:28:31;;;;;;;48.33;27.42;;;4.20;99.90;;;;;;5073466;28;20046;-65
2022/03/03 00:30:57;;;;;;;49.83;26.77;;;3.00;99.90;;;;;;5074295;28;20131;-66
2022/03/03 00:33:23;;;;;;;50.97;27.75;;;3.00;99.90;;;;;;5073914;28;20473;-65
2022/03/03 00:35:48;;;;;;;54.95;28.83;;;2.70;99.90;;;;;;5073343;28;20104;-65
2022/03/03 00:38:14;;;;;;;48.53;27.30;;;2.60;99.90;;;;;;5073696;28;20135;-66
2022/03/03 00:40:40;;;;;;;49.03;28.02;;;3.90;99.90;;;;;;5072354;28;20119;-65
2022/03/03 00:43:06;;;;;;;52.90;28.33;;;3.60;99.90;;;;;;5073307;28;20048;-65
2022/03/03 00:45:36;;;;;;;48.38;27.95;;;3.20;99.90;;;;;;5072217;28;20123;-65
2022/03/03 00:48:03;;;;;;;47.97;26.42;;;3.50;99.90;;;;;;5073531;28;20067;-66
2022/03/03 00:50:29;;;;;;;55.42;28.98;;;3.10;99.90;;;;;;5055494;28;20459;-65
2022/03/03 00:52:54;;;;;;;46.90;25.35;;;2.80;99.90;;;;;;5073844;28;20150;-65
2022/03/03 00:55:20;;;;;;;49.22;27.38;;;2.80;99.90;;;;;;5071802;28;20500;-65
2022/03/03 00:57:46;;;;;;;48.30;26.52;;;2.80;99.90;;;;;;5073581;28;20130;-66
2022/03/03 01:00:12;;;;;;;51.75;26.95;;;3.30;99.90;;;;;;5072195;28;20110;-65
2022/03/03 01:02:38;;;;;;;51.22;27.02;;;2.70;99.90;;;;;;5075299;28;20044;-65
2022/03/03 01:05:06;;;;;;;49.03;26.17;;;4.20;99.90;;;;;;5076997;28;20044;-65
2022/03/03 01:07:31;;;;;;;47.28;26.45;;;2.60;99.90;;;;;;5075717;28;20048;-65
2022/03/03 01:09:57;;;;;;;47.80;25.58;;;2.60;99.90;;;;;;5077288;28;20066;-65
2022/03/03 01:12:23;;;;;;;49.65;27.30;;;2.60;99.90;;;;;;5076888;28;20082;-66
2022/03/03 01:14:49;;;;;;;45.30;25.33;;;2.40;99.90;;;;;;5076485;28;20044;-66
2022/03/03 01:17:15;;;;;;;49.80;27.48;;;3.00;99.90;;;;;;5077076;28;20090;-66
2022/03/03 01:19:41;;;;;;;45.10;26.35;;;2.60;99.90;;;;;;5076765;28;20056;-66
2022/03/03 01:22:07;;;;;;;49.58;26.50;;;3.10;99.90;;;;;;5076703;28;20044;-65
2022/03/03 01:24:33;;;;;;;49.05;27.00;;;2.50;99.90;;;;;;5075971;28;20075;-65
2022/03/03 01:26:59;;;;;;;52.03;27.35;;;2.70;99.90;;;;;;5075973;28;20048;-65
2022/03/03 01:29:25;;;;;;;43.35;26.17;;;2.60;99.90;;;;;;5076631;28;20121;-66
2022/03/03 01:31:51;;;;;;;47.35;25.98;;;2.60;99.90;;;;;;5076562;28;20522;-65
2022/03/03 01:34:16;;;;;;;47.25;25.60;;;2.50;99.90;;;;;;5059107;28;20048;-66
2022/03/03 01:36:43;;;;;;;49.10;26.95;;;3.90;99.90;;;;;;5077019;28;20385;-65
2022/03/03 01:39:09;;;;;;;50.10;27.38;;;2.50;99.90;;;;;;5076424;28;20056;-66
2022/03/03 01:41:36;;;;;;;45.60;26.17;;;2.70;99.90;;;;;;5076360;28;20052;-66
2022/03/03 01:44:03;;;;;;;43.28;24.77;;;2.60;99.90;;;;;;5076202;28;20076;-66
2022/03/03 01:46:29;;;;;;;46.75;25.83;;;2.40;99.90;;;;;;5076322;28;20091;-65
2022/03/03 01:48:55;;;;;;;47.47;25.58;;;2.80;99.90;;;;;;5076845;28;20083;-66
2022/03/03 01:51:20;;;;;;;46.33;25.20;;;2.50;99.90;;;;;;5076222;28;20051;-66
2022/03/03 01:53:46;;;;;;;47.47;25.80;;;2.20;99.90;;;;;;5075877;28;20451;-66
2022/03/03 01:56:12;;;;;;;46.53;26.55;;;2.40;99.90;;;;;;5076068;28;20051;-65
2022/03/03 01:58:39;;;;;;;47.80;25.63;;;2.40;99.90;;;;;;5076735;28;20068;-65
2022/03/03 02:01:04;;;;;;;48.65;27.08;;;2.50;99.90;;;;;;5075970;28;20123;-66
2022/03/03 02:03:31;;;;;;;48.30;26.30;;;3.10;99.90;;;;;;5075902;28;20103;-65
2022/03/03 02:05:56;;;;;;;49.08;26.70;;;2.30;99.90;;;;;;5076776;28;20346;-65
2022/03/03 02:08:23;;;;;;;42.90;25.48;;;3.80;99.90;;;;;;5058978;28;20135;-66
2022/03/03 02:10:51;;;;;;;45.35;26.25;;;2.10;99.90;;;;;;5075111;28;20083;-66
2022/03/03 02:13:17;;;;;;;48.08;26.88;;;2.10;99.90;;;;;;5073718;28;20067;-66
2022/03/03 02:15:53;;;;;;;46.55;26.00;;;2.30;99.90;;;;;;5076126;28;20037;-65
2022/03/03 02:18:19;;;;;;;43.92;25.73;;;2.00;99.90;;;;;;5075030;28;20110;-65
2022/03/03 02:20:44;;;;;;;46.25;25.95;;;2.50;99.90;;;;;;5075638;28;20037;-66
2022/03/03 02:23:10;;;;;;;43.70;25.00;;;2.10;99.90;;;;;;5075641;28;20048;-66
2022/03/03 02:25:36;;;;;;;46.58;25.17;;;2.10;99.90;;;;;;5076113;28;20040;-66
2022/03/03 02:28:02;;;;;;;45.95;24.75;;;3.40;99.90;;;;;;5074509;28;20067;-65
2022/03/03 02:30:28;;;;;;;46.80;25.50;;;2.20;99.90;;;;;;5075535;28;20067;-66
2022/03/03 02:32:54;;;;;;;40.20;24.63;;;2.10;99.90;;;;;;5075731;28;20049;-65
2022/03/03 02:35:20;;;;;;;41.60;24.13;;;2.10;99.90;;;;;;5074273;28;20127;-65
2022/03/03 02:37:46;;;;;;;44.22;25.85;;;4.40;99.90;;;;;;5075397;28;20071;-66
2022/03/03 02:40:20;;;;;;;46.47;26.50;;;2.40;99.90;;;;;;5075280;28;20047;-66
2022/03/03 02:42:50;;;;;;;44.60;25.80;;;2.30;99.90;;;;;;5075297;28;20084;-66
2022/03/03 02:45:16;;;;;;;42.65;25.10;;;2.10;99.90;;;;;;5074161;28;20059;-66
2022/03/03 02:47:45;;;;;;;42.75;24.67;;;2.10;99.90;;;;;;5075105;28;20044;-65
2022/03/03 02:50:11;;;;;;;42.97;24.45;;;1.90;99.90;;;;;;5074046;28;20546;-65
2022/03/03 02:52:37;;;;;;;45.40;24.75;;;2.60;99.90;;;;;;5075042;28;20503;-66
2022/03/03 02:55:04;;;;;;;41.70;24.75;;;2.90;99.90;;;;;;5075497;28;20044;-65
2022/03/03 03:00:15;;;;;;;43.88;25.02;;;2.00;99.90;;;;;;5075190;28;20370;-65
2022/03/03 03:02:41;;;;;;;42.03;23.85;;;2.10;99.90;;;;;;5074845;28;20048;-66
2022/03/03 03:05:07;;;;;;;40.13;23.88;;;2.40;99.90;;;;;;5074712;28;20041;-66
2022/03/03 03:07:33;;;;;;;41.28;23.70;;;2.10;99.90;;;;;;5073530;28;20040;-66
2022/03/03 03:09:58;;;;;;;42.58;24.35;;;2.20;99.90;;;;;;5075483;28;20095;-66
2022/03/03 03:12:24;;;;;;;41.45;23.77;;;2.10;99.90;;;;;;5073718;28;20439;-65
2022/03/03 03:14:50;;;;;;;45.80;25.25;;;3.00;99.90;;;;;;5074839;28;20080;-66
2022/03/03 03:17:15;;;;;;;47.08;25.52;;;3.30;99.90;;;;;;5075077;28;20044;-65
2022/03/03 03:19:41;;;;;;;41.60;23.45;;;3.60;99.90;;;;;;5075321;28;20048;-65
2022/03/03 03:22:07;;;;;;;41.17;24.27;;;3.20;99.90;;;;;;5073168;28;20409;-66
2022/03/03 03:24:33;;;;;;;45.92;24.98;;;2.10;99.90;;;;;;5074050;28;20056;-65
2022/03/03 03:26:58;;;;;;;42.33;24.63;;;2.10;99.90;;;;;;5073192;28;20044;-66
2022/03/03 03:29:24;;;;;;;42.63;23.40;;;1.90;99.90;;;;;;5072876;28;20094;-66
2022/03/03 03:31:50;;;;;;;40.83;23.45;;;2.10;99.90;;;;;;5073640;28;20048;-66
2022/03/03 03:34:15;;;;;;;44.22;24.08;;;2.00;99.90;;;;;;5074141;28;20084;-66
2022/03/03 03:36:41;;;;;;;44.33;24.75;;;1.90;99.90;;;;;;5074170;28;20044;-66
2022/03/03 03:39:07;;;;;;;40.30;23.67;;;3.00;99.90;;;;;;5072978;28;20055;-66
2022/03/03 03:41:32;;;;;;;41.10;22.98;;;3.10;99.90;;;;;;5074140;28;20090;-65
2022/03/03 03:43:58;;;;;;;37.88;21.40;;;2.20;99.90;;;;;;5074020;28;20080;-65
2022/03/03 03:46:24;;;;;;;40.05;22.33;;;2.50;99.90;;;;;;5073859;28;20048;-65
2022/03/03 03:48:49;;;;;;;39.47;23.08;;;4.20;99.90;;;;;;5073710;28;20117;-66
2022/03/03 03:51:16;;;;;;;40.88;22.48;;;2.10;99.90;;;;;;5073922;28;20131;-65
2022/03/03 03:53:41;;;;;;;38.88;21.48;;;2.70;99.90;;;;;;5072959;28;20060;-66
2022/03/03 03:56:08;;;;;;;36.35;22.00;;;2.80;99.90;;;;;;5073794;28;20037;-66
2022/03/03 03:58:33;;;;;;;39.40;22.67;;;1.90;99.90;;;;;;5073564;28;20131;-65
2022/03/03 04:00:59;;;;;;;42.20;23.75;;;2.70;99.90;;;;;;5072307;28;20120;-66
2022/03/03 04:03:25;;;;;;;40.40;22.67;;;2.40;99.90;;;;;;5073731;28;20059;-65
2022/03/03 04:05:51;;;;;;;38.15;22.08;;;3.10;99.90;;;;;;5074115;28;20044;-65
2022/03/03 04:08:18;;;;;;;40.05;23.60;;;1.90;99.90;;;;;;5073751;28;20496;-66
2022/03/03 04:10:45;;;;;;;38.28;22.27;;;1.90;99.90;;;;;;5057113;28;20052;-65
2022/03/03 04:13:11;;;;;;;38.22;21.98;;;2.10;99.90;;;;;;5073688;28;20105;-65
2022/03/03 04:15:37;;;;;;;37.00;20.98;;;1.90;99.90;;;;;;5073585;28;20128;-65
2022/03/03 04:18:02;;;;;;;36.85;22.50;;;2.10;99.90;;;;;;5073601;28;20044;-65
2022/03/03 04:20:28;;;;;;;34.83;20.75;;;1.90;99.90;;;;;;5072649;28;20052;-66
2022/03/03 04:22:54;;;;;;;37.80;21.77;;;1.80;99.90;;;;;;5073576;28;20051;-65
2022/03/03 04:25:19;;;;;;;38.53;21.85;;;1.90;99.90;;;;;;5073568;28;20044;-66
2022/03/03 04:27:45;;;;;;;36.63;22.42;;;3.40;99.90;;;;;;5072322;28;20056;-65
2022/03/03 04:30:12;;;;;;;37.88;22.17;;;2.90;99.90;;;;;;5072533;28;20048;-66
2022/03/03 04:32:38;;;;;;;39.53;22.30;;;2.00;99.90;;;;;;5073519;28;20102;-65
2022/03/03 04:35:05;;;;;;;37.35;21.60;;;2.00;99.90;;;;;;5073370;28;20048;-65
2022/03/03 04:37:31;;;;;;;36.65;21.52;;;2.00;99.90;;;;;;5075499;28;20067;-65
2022/03/03 04:39:57;;;;;;;41.80;23.60;;;2.00;99.90;;;;;;5077598;28;20472;-65
2022/03/03 04:42:23;;;;;;;39.03;22.70;;;1.80;99.90;;;;;;5076382;28;20044;-66
2022/03/03 04:44:49;;;;;;;38.17;22.73;;;1.90;99.90;;;;;;5076584;28;20044;-65
2022/03/03 04:47:14;;;;;;;38.55;21.80;;;1.90;99.90;;;;;;5078011;28;20040;-65
2022/03/03 04:49:40;;;;;;;39.30;22.15;;;2.00;99.90;;;;;;5077389;28;20136;-65
2022/03/03 04:52:06;;;;;;;41.28;20.92;;;2.40;99.90;;;;;;5076152;28;20044;-65
2022/03/03 04:54:32;;;;;;;41.38;22.27;;;1.90;99.90;;;;;;5077295;28;20044;-65
2022/03/03 04:56:58;;;;;;;36.83;21.75;;;1.70;99.90;;;;;;5077214;28;20048;-66
2022/03/03 04:59:24;;;;;;;39.97;23.13;;;1.80;99.90;;;;;;5077233;28;20143;-65
2022/03/03 05:01:51;;;;;;;37.80;22.05;;;3.20;99.90;;;;;;5076842;28;20048;-65
2022/03/03 05:04:18;;;;;;;39.25;22.63;;;2.10;99.90;;;;;;5059649;28;20161;-66
2022/03/03 05:06:44;;;;;;;36.50;22.27;;;1.70;99.90;;;;;;5077867;28;20377;-66
2022/03/03 05:09:10;;;;;;;37.42;23.08;;;2.10;99.90;;;;;;5075995;28;20045;-65
2022/03/03 05:11:36;;;;;;;40.80;22.98;;;2.60;99.90;;;;;;5076961;28;20051;-65
2022/03/03 05:14:02;;;;;;;38.78;22.67;;;2.50;99.90;;;;;;5076881;28;20542;-66
2022/03/03 05:16:27;;;;;;;38.05;22.00;;;1.80;99.90;;;;;;5076765;28;20045;-65
2022/03/03 05:18:53;;;;;;;39.47;23.08;;;1.70;99.90;;;;;;5076873;28;20041;-65
2022/03/03 05:21:19;;;;;;;40.38;22.30;;;1.80;99.90;;;;;;5075558;28;20044;-66
2022/03/03 05:23:45;;;;;;;40.88;22.27;;;2.00;99.90;;;;;;5076759;28;20044;-65
2022/03/03 05:26:11;;;;;;;42.45;22.90;;;2.30;99.90;;;;;;5076689;28;20098;-65
2022/03/03 05:28:36;;;;;;;42.00;23.17;;;3.40;99.90;;;;;;5076609;28;20044;-65
2022/03/03 05:31:02;;;;;;;38.78;22.73;;;2.00;99.90;;;;;;5058811;28;20076;-66
2022/03/03 05:33:29;;;;;;;41.83;23.60;;;1.60;99.90;;;;;;5059208;28;20135;-65
2022/03/03 05:36:00;;;;;;;39.05;22.20;;;1.90;99.90;;;;;;5076583;28;20048;-65
2022/03/03 05:38:29;;;;;;;38.97;22.60;;;3.00;99.90;;;;;;5077523;28;20048;-65
2022/03/03 05:40:56;;;;;;;42.72;23.88;;;2.20;99.90;;;;;;5076606;28;20051;-65
2022/03/03 05:43:24;;;;;;;38.75;22.70;;;2.00;99.90;;;;;;5058830;28;20048;-65
2022/03/03 05:45:51;;;;;;;38.78;23.30;;;2.70;99.90;;;;;;5076524;28;20049;-65
2022/03/03 05:48:18;;;;;;;39.50;23.67;;;3.40;99.90;;;;;;5074987;28;20141;-65
2022/03/03 05:50:44;;;;;;;42.10;23.63;;;1.80;99.90;;;;;;5076047;28;20048;-65
2022/03/03 05:53:10;;;;;;;39.70;22.50;;;1.70;99.90;;;;;;5075712;28;20047;-65
2022/03/03 05:55:58;;;;;;;41.45;24.40;;;2.20;99.90;;;;;;5076470;28;20091;-65
2022/03/03 05:58:34;;;;;;;40.10;22.73;;;1.60;99.90;;;;;;5076014;28;20055;-65
2022/03/03 06:01:01;;;;;;;40.47;24.35;;;1.70;99.90;;;;;;5076569;28;20057;-65
2022/03/03 06:03:30;;;;;;;38.42;23.30;;;1.70;99.90;;;;;;5076121;28;20044;-66
2022/03/03 06:06:08;;;;;;;40.95;23.35;;;1.60;99.90;;;;;;5076117;28;20051;-65
2022/03/03 06:08:42;;;;;;;41.60;23.00;;;1.80;99.90;;;;;;5076422;28;20045;-65
2022/03/03 06:11:14;;;;;;;41.50;23.10;;;2.90;99.90;;;;;;5075832;28;20488;-65
2022/03/03 06:13:46;;;;;;;45.90;24.55;;;1.40;99.90;;;;;;5076904;28;20125;-65
2022/03/03 06:16:16;;;;;;;41.42;24.35;;;2.40;99.90;;;;;;5075584;28;20051;-65
2022/03/03 06:18:48;;;;;;;44.35;24.65;;;1.60;99.90;;;;;;5074414;28;20567;-65
2022/03/03 06:21:15;;;;;;;46.08;26.00;;;1.60;99.90;;;;;;5075851;28;20045;-65
2022/03/03 06:23:41;;;;;;;43.92;23.88;;;1.50;99.90;;;;;;5075855;28;20056;-65
2022/03/03 06:26:10;;;;;;;42.53;25.00;;;1.60;99.90;;;;;;5075471;28;20542;-65
2022/03/03 06:28:36;;;;;;;41.97;24.80;;;1.80;99.90;;;;;;5075546;28;20048;-65
2022/03/03 06:31:04;;;;;;;39.88;23.02;;;2.40;99.90;;;;;;5075013;28;20062;-65
2022/03/03 06:33:30;;;;;;;44.05;25.17;;;2.50;99.90;;;;;;5074492;28;20126;-66
2022/03/03 06:35:56;;;;;;;45.65;24.95;;;2.40;99.90;;;;;;5074431;28;20123;-65
2022/03/03 06:38:22;;;;;;;44.55;24.45;;;2.60;99.90;;;;;;5075535;28;20040;-65
2022/03/03 06:40:47;;;;;;;40.83;24.80;;;2.70;99.90;;;;;;5074167;28;20079;-65
2022/03/03 06:43:13;;;;;;;41.13;23.92;;;1.50;99.90;;;;;;5075512;28;20095;-65
2022/03/03 06:45:39;;;;;;;39.92;23.42;;;1.60;99.90;;;;;;5057807;28;20048;-66
2022/03/03 06:48:06;;;;;;;43.30;24.67;;;1.50;99.90;;;;;;5058538;28;20117;-65
2022/03/03 06:50:40;;;;;;;44.33;24.75;;;2.80;99.90;;;;;;5076089;28;20115;-65
2022/03/03 06:53:09;;;;;;;43.92;24.83;;;1.60;99.90;;;;;;5075777;28;20083;-65
2022/03/03 06:55:36;;;;;;;44.65;24.67;;;1.60;99.90;;;;;;5075142;28;20044;-65
2022/03/03 06:58:02;;;;;;;43.63;24.55;;;2.30;99.90;;;;;;5075111;28;20114;-66
2022/03/03 07:00:34;;;;;;;46.25;24.58;;;1.70;99.90;;;;;;5074197;28;20412;-66
2022/03/03 07:03:01;;;;;;;41.55;24.08;;;1.90;99.90;;;;;;5075866;28;20101;-66
2022/03/03 07:05:30;;;;;;;39.97;23.20;;;1.60;99.90;;;;;;5073644;28;20527;-66
2022/03/03 07:07:57;;;;;;;46.17;24.70;;;2.30;99.90;;;;;;5074522;28;20059;-66
2022/03/03 07:10:25;;;;;;;48.00;24.98;;;1.90;99.90;;;;;;5075751;28;20067;-65
2022/03/03 07:12:57;;;;;;;41.63;23.45;;;1.60;99.90;;;;;;5073603;28;20492;-65
2022/03/03 07:15:24;;;;;;;40.85;22.88;;;1.70;99.90;;;;;;5073383;28;20045;-65
2022/03/03 07:17:53;;;;;;;42.25;24.05;;;1.80;99.90;;;;;;5073551;28;20127;-65
2022/03/03 07:20:49;;;;;;;45.53;23.17;;;2.10;99.90;;;;;;5074478;28;20132;-65
2022/03/03 07:23:27;;;;;;;44.17;23.63;;;1.80;99.90;;;;;;5075493;28;20052;-65
2022/03/03 07:25:57;;;;;;;43.13;23.52;;;1.80;99.90;;;;;;5073636;28;20496;-65
2022/03/03 07:28:24;;;;;;;40.35;22.98;;;2.00;99.90;;;;;;5075053;28;20141;-65
2022/03/03 07:30:51;;;;;;;45.15;24.35;;;1.90;99.90;;;;;;5073342;28;20052;-65
2022/03/03 07:33:23;;;;;;;42.05;23.10;;;2.70;99.90;;;;;;5075227;28;20147;-65
2022/03/03 07:35:50;;;;;;;43.40;23.83;;;1.90;99.90;;;;;;5074022;28;20499;-65
2022/03/03 07:38:19;;;;;;;41.90;23.58;;;1.90;99.90;;;;;;5073897;28;20496;-65
2022/03/03 07:40:48;;;;;;;44.95;22.50;;;2.40;99.90;;;;;;5074264;28;20063;-65
2022/03/03 07:43:15;;;;;;;39.25;22.50;;;2.10;99.90;;;;;;5074541;28;20052;-65
2022/03/03 07:45:42;;;;;;;45.53;23.45;;;2.80;99.90;;;;;;5073031;28;20113;-65
2022/03/03 07:48:10;;;;;;;44.85;23.40;;;1.90;99.90;;;;;;5074626;28;20050;-65
2022/03/03 07:50:39;;;;;;;43.35;24.02;;;2.20;99.90;;;;;;5074086;28;20088;-65
2022/03/03 07:53:10;;;;;;;42.63;23.45;;;2.10;99.90;;;;;;5074067;28;20106;-65
2022/03/03 07:55:44;;;;;;;46.97;22.88;;;2.80;99.90;;;;;;5074832;28;20435;-65
2022/03/03 07:58:16;;;;;;;44.20;23.67;;;2.40;99.90;;;;;;5073730;28;20484;-65
2022/03/03 08:00:47;;;;;;;42.90;22.50;;;2.20;99.90;;;;;;5073100;28;20056;-65
2022/03/03 08:03:17;;;;;;;41.03;22.70;;;2.10;99.90;;;;;;5074517;28;20048;-65
2022/03/03 08:05:51;;;;;;;42.22;22.85;;;3.10;99.90;;;;;;5074474;28;20083;-65
2022/03/03 08:08:20;;;;;;;40.60;23.55;;;3.00;99.90;;;;;;5072823;28;20048;-65
2022/03/03 08:10:46;;;;;;;44.95;23.90;;;2.30;99.90;;;;;;5073943;28;20532;-65
2022/03/03 08:13:15;;;;;;;37.40;22.08;;;2.40;99.90;;;;;;5072174;28;20515;-65
2022/03/03 08:15:45;;;;;;;38.30;20.90;;;3.50;99.90;;;;;;5073586;28;20087;-65
2022/03/03 08:18:11;;;;;;;38.75;22.73;;;2.80;99.90;;;;;;5073716;28;20044;-65
2022/03/03 08:20:38;;;;;;;40.67;22.45;;;2.70;99.90;;;;;;5073512;28;20127;-65
2022/03/03 08:23:05;;;;;;;37.58;21.15;;;2.50;99.90;;;;;;5072971;28;20075;-65
2022/03/03 08:25:31;;;;;;;39.95;21.63;;;3.40;99.90;;;;;;5056266;28;20494;-66
2022/03/03 08:27:57;;;;;;;39.92;21.23;;;3.00;99.90;;;;;;5055687;28;20048;-66
2022/03/03 08:30:24;;;;;;;42.00;22.25;;;2.60;99.90;;;;;;5072446;28;20048;-65
2022/03/03 08:33:11;;;;;;;40.80;22.58;;;2.70;99.90;;;;;;5073603;28;20049;-66
2022/03/03 08:35:41;;;;;;;37.40;20.45;;;2.80;99.90;;;;;;5074103;28;20185;-66
2022/03/03 08:38:16;;;;;;;34.55;19.75;;;3.60;99.90;;;;;;5074175;28;20045;-66
2022/03/03 08:40:44;;;;;;;39.63;21.92;;;3.50;99.90;;;;;;5072951;28;20047;-66
2022/03/03 08:43:13;;;;;;;39.40;20.98;;;3.00;99.90;;;;;;5073495;28;20052;-66
2022/03/03 08:45:39;;;;;;;35.90;19.65;;;3.00;99.90;;;;;;5072628;28;20389;-66
2022/03/03 08:48:08;;;;;;;35.72;19.98;;;3.10;99.90;;;;;;5073437;28;20056;-66
2022/03/03 08:50:36;;;;;;;39.67;22.15;;;2.90;99.90;;;;;;5073714;28;20143;-66
2022/03/03 08:53:03;;;;;;;36.20;21.70;;;3.30;99.90;;;;;;5072783;28;20120;-66
2022/03/03 08:55:30;;;;;;;41.17;21.02;;;3.30;99.90;;;;;;5073839;28;20040;-66
2022/03/03 08:57:58;;;;;;;37.78;20.08;;;3.50;99.90;;;;;;5073386;28;20045;-67
2022/03/03 09:00:24;;;;;;;35.30;19.70;;;3.80;99.90;;;;;;5073739;28;20369;-66
2022/03/03 09:02:51;;;;;;;33.65;17.88;;;3.40;99.90;;;;;;5073002;28;20032;-65
2022/03/03 09:05:17;;;;;;;37.63;19.67;;;3.60;99.90;;;;;;5073211;28;20118;-65
2022/03/03 09:07:43;;;;;;;32.17;18.35;;;3.70;99.90;;;;;;5072142;28;20082;-64
2022/03/03 09:10:09;;;;;;;32.80;18.00;;;3.60;99.90;;;;;;5073080;28;20041;-65
2022/03/03 09:12:35;;;;;;;33.80;19.52;;;3.60;99.90;;;;;;5073487;28;20044;-64
2022/03/03 09:15:02;;;;;;;34.53;18.00;;;2.60;99.90;;;;;;5072818;28;20493;-64
2022/03/03 09:17:27;;;;;;;33.28;18.75;;;3.60;99.90;;;;;;5072167;28;20052;-64
2022/03/03 09:19:53;;;;;;;36.80;18.30;;;3.90;99.90;;;;;;5073167;28;20054;-65
2022/03/03 09:22:19;;;;;;;31.23;16.60;;;3.80;99.90;;;;;;5073119;28;20048;-64
2022/03/03 09:24:44;;;;;;;32.22;17.48;;;3.90;99.90;;;;;;5076832;28;20064;-65
2022/03/03 09:27:10;;;;;;;28.50;17.13;;;3.90;99.90;;;;;;5076797;28;20044;-65
2022/03/03 09:29:36;;;;;;;29.38;17.42;;;3.70;99.90;;;;;;5076736;28;20041;-66
2022/03/03 09:32:06;;;;;;;30.45;17.52;;;4.10;99.90;;;;;;5076718;28;20094;-65
2022/03/03 09:34:32;;;;;;;28.63;16.08;;;4.10;99.90;;;;;;5077435;28;20044;-66
2022/03/03 09:36:58;;;;;;;26.15;15.52;;;4.30;99.90;;;;;;5075936;28;20041;-65
2022/03/03 09:39:24;;;;;;;28.95;15.82;;;4.70;99.90;;;;;;5076223;28;20388;-66
2022/03/03 09:41:52;;;;;;;27.02;16.45;;;4.40;99.90;;;;;;5075200;28;20376;-66
2022/03/03 09:44:23;;;;;;;30.65;16.58;;;4.40;99.90;;;;;;5058011;28;20082;-66
2022/03/03 09:46:49;;;;;;;29.67;17.27;;;4.90;99.90;;;;;;5076125;28;20153;-66
2022/03/03 09:49:16;;;;;;;29.63;17.10;;;4.50;99.90;;;;;;5074870;28;20127;-66
2022/03/03 09:51:42;;;;;;;28.45;17.35;;;4.90;99.90;;;;;;5075389;28;20056;-67
2022/03/03 09:54:08;;;;;;;26.25;15.48;;;4.60;99.90;;;;;;5074991;28;20044;-66
2022/03/03 09:56:34;;;;;;;25.20;16.58;;;4.90;99.90;;;;;;5075088;28;20040;-66
2022/03/03 09:59:00;;;;;;;29.33;16.23;;;4.90;99.90;;;;;;5074946;28;20090;-65
2022/03/03 10:01:30;;;;;;;27.77;16.05;;;4.90;99.90;;;;;;5075281;28;20060;-65
2022/03/03 10:04:12;;;;;;;25.23;15.65;;;5.10;99.90;;;;;;5074501;28;20110;-65
2022/03/03 10:06:42;;;;;;;26.23;16.45;;;5.10;99.90;;;;;;5075932;28;20409;-66
2022/03/03 10:09:09;;;;;;;25.13;15.18;;;5.20;99.90;;;;;;5075432;28;20080;-65
2022/03/03 10:12:00;;;;;;;28.73;15.52;;;5.20;99.90;;;;;;5074947;28;20060;-65
2022/03/03 10:14:28;;;;;;;28.13;16.52;;;5.30;99.90;;;;;;5075146;28;20129;-65
2022/03/03 10:16:54;;;;;;;26.13;15.38;;;6.00;99.90;;;;;;5075355;28;20040;-66
2022/03/03 10:19:20;;;;;;;24.60;15.48;;;5.50;99.90;;;;;;5073293;28;20037;-65
2022/03/03 10:21:46;;;;;;;26.00;15.75;;;5.50;99.90;;;;;;5074589;28;20084;-66
2022/03/03 10:24:29;;;;;;;26.67;15.80;;;5.50;99.90;;;;;;5074611;28;20442;-66
2022/03/03 10:27:04;;;;;;;23.25;15.38;;;5.70;99.90;;;;;;5074706;28;20426;-65
2022/03/03 10:29:32;;;;;;;25.00;14.80;;;5.70;99.90;;;;;;5074127;28;20488;-66
2022/03/03 10:31:59;;;;;;;23.73;14.00;;;5.80;99.90;;;;;;5074316;28;20532;-66
2022/03/03 10:34:31;;;;;;;25.25;14.73;;;5.90;99.90;;;;;;5073162;28;20045;-66
2022/03/03 10:37:03;;;;;;;24.67;14.87;;;6.00;99.90;;;;;;5074502;28;20084;-66
2022/03/03 10:39:44;;;;;;;24.10;14.53;;;6.00;99.90;;;;;;5073270;28;20048;-66
2022/03/03 10:42:19;;;;;;;26.60;14.80;;;6.00;99.90;;;;;;5073636;28;20041;-66
2022/03/03 10:44:46;;;;;;;24.17;15.25;;;5.90;99.90;;;;;;5073053;28;20556;-66
2022/03/03 10:47:16;;;;;;;25.13;14.50;;;6.30;99.90;;;;;;5073623;28;20120;-66
2022/03/03 10:49:48;;;;;;;20.20;13.55;;;6.00;99.90;;;;;;5073858;28;20465;-65
2022/03/03 10:52:15;;;;;;;21.52;13.10;;;6.30;99.90;;;;;;5074865;28;20137;-66
2022/03/03 10:55:01;;;;;;;25.45;14.98;;;6.30;99.90;;;;;;5073849;28;20051;-66
2022/03/03 10:57:44;;;;;;;22.08;12.85;;;6.40;99.90;;;;;;5074448;28;20138;-66
2022/03/03 11:00:29;;;;;;;21.30;13.18;;;6.60;99.90;;;;;;5073456;28;20063;-66
2022/03/03 11:02:59;;;;;;;19.45;12.95;;;6.50;99.90;;;;;;5055841;28;20492;-66
2022/03/03 11:05:28;;;;;;;18.75;12.45;;;6.80;99.90;;;;;;5073636;28;20067;-66
2022/03/03 11:07:54;;;;;;;21.13;13.50;;;6.60;99.90;;;;;;5073895;28;20484;-66
2022/03/03 11:10:22;;;;;;;21.85;13.38;;;7.50;99.90;;;;;;5074439;28;20067;-66
2022/03/03 11:12:49;;;;;;;23.73;14.90;;;6.70;99.90;;;;;;5072959;28;20465;-66
2022/03/03 11:15:20;;;;;;;21.77;13.23;;;7.00;99.90;;;;;;5074081;28;20049;-66
2022/03/03 11:17:47;;;;;;;22.05;14.05;;;7.00;99.90;;;;;;5075352;28;20048;-66
2022/03/03 11:20:15;;;;;;;24.00;15.13;;;6.90;99.90;;;;;;5074186;28;20040;-66
2022/03/03 11:22:43;;;;;;;24.65;14.02;;;8.10;99.90;;;;;;5074063;28;20048;-66
2022/03/03 11:25:14;;;;;;;22.52;14.13;;;7.40;99.90;;;;;;5074079;28;20055;-66
2022/03/03 11:27:42;;;;;;;24.10;13.48;;;7.00;99.90;;;;;;5073931;28;20052;-66
2022/03/03 11:30:14;;;;;;;26.80;14.38;;;7.00;99.90;;;;;;5056602;28;20051;-66
2022/03/03 11:32:40;;;;;;;24.48;15.02;;;7.10;99.90;;;;;;5073226;28;20048;-66
2022/03/03 11:35:08;;;;;;;23.90;14.68;;;7.20;99.90;;;;;;5074219;28;20049;-66
2022/03/03 11:37:45;;;;;;;25.17;15.52;;;7.20;99.90;;;;;;5074310;28;20047;-66
2022/03/03 11:40:20;;;;;;;22.88;15.18;;;7.20;99.90;;;;;;5074369;28;20395;-66
2022/03/03 11:42:51;;;;;;;23.60;15.10;;;7.20;99.90;;;;;;5074289;28;20087;-65
2022/03/03 11:45:42;;;;;;;24.35;14.65;;;7.30;99.90;;;;;;5074855;28;20047;-66
2022/03/03 11:48:11;;;;;;;27.58;14.85;;;7.10;99.90;;;;;;5074063;28;20142;-66
2022/03/03 11:50:37;;;;;;;23.40;14.57;;;7.30;99.90;;;;;;5074207;28;20388;-66
2022/03/03 11:53:03;;;;;;;25.40;14.27;;;7.40;99.90;;;;;;5072930;28;20048;-66
2022/03/03 11:55:32;;;;;;;25.33;15.38;;;7.40;99.90;;;;;;5073975;28;20040;-66
2022/03/03 11:58:14;;;;;;;25.88;14.90;;;7.50;99.90;;;;;;5073334;28;20044;-66
2022/03/03 12:00:59;;;;;;;25.07;14.90;;;7.50;99.90;;;;;;5074070;28;20055;-66
2022/03/03 12:03:25;;;;;;;23.52;15.82;;;7.60;99.90;;;;;;5073410;28;20052;-66
2022/03/03 12:06:13;;;;;;;21.75;14.70;;;7.60;99.90;;;;;;5073869;28;20400;-66
2022/03/03 12:08:40;;;;;;;23.80;14.48;;;7.60;99.90;;;;;;5074528;28;20358;-66
2022/03/03 12:11:16;;;;;;;23.85;14.27;;;7.70;99.90;;;;;;5073860;28;20047;-66
2022/03/03 12:13:49;;;;;;;22.73;14.23;;;7.70;99.90;;;;;;5073883;28;20090;-67
2022/03/03 12:16:33;;;;;;;28.17;13.43;;;7.70;99.70;;;;;;5072361;28;20052;-67
2022/03/03 12:19:02;;;;;;;20.25;13.18;;;7.70;99.60;;;;;;5074385;28;20109;-66
2022/03/03 12:21:46;;;;;;;19.10;12.40;;;8.00;98.80;;;;;;5074017;28;20404;-67
2022/03/03 12:24:17;;;;;;;17.73;11.40;;;7.80;97.90;;;;;;5073746;28;20055;-67
2022/03/03 12:26:55;;;;;;;20.00;12.48;;;7.90;97.10;;;;;;5074508;28;20048;-67
2022/03/03 12:29:52;;;;;;;20.33;11.93;;;7.90;96.60;;;;;;5074231;28;20049;-67
2022/03/03 12:32:35;;;;;;;18.80;12.38;;;8.00;96.40;;;;;;5073680;28;20404;-67
2022/03/03 12:35:04;;;;;;;20.35;11.93;;;8.00;96.10;;;;;;5073802;28;20052;-68
2022/03/03 12:37:32;;;;;;;17.17;10.27;;;8.00;95.30;;;;;;5073442;28;20044;-67
2022/03/03 12:40:01;;;;;;;20.02;12.38;;;8.10;94.30;;;;;;5072585;28;20095;-68
2022/03/03 12:42:31;;;;;;;18.08;11.25;;;8.10;94.30;;;;;;5073179;28;20140;-67
2022/03/03 12:45:08;;;;;;;17.15;10.93;;;8.20;94.40;;;;;;5072256;28;20092;-67